Time;durP1;ratioP1;P1;durP2;ratioP2;P2;SDS_P1;SDS_P2;PMS_P1;PMS_P2;Temp;Humidity;BMP_temperature;BMP_pressure;BME280_temperature;BME280_humidity;BME280_pressure;Samples;Min_cycle;Max_cycle;Signal;HPM_P1;HPM_P2
2022/05/11 00:02:25;;;;;;;5.70;3.15;;;;;;;;;;4999750;28;20033;-90
2022/05/11 00:04:50;;;;;;;5.82;2.92;;;;;;;;;;4994334;28;20030;-89
2022/05/11 00:07:16;;;;;;;5.35;2.92;;;;;;;;;;4998671;28;20046;-89
2022/05/11 00:09:41;;;;;;;4.22;3.42;;;;;;;;;;4998360;28;20028;-89
2022/05/11 00:12:08;;;;;;;4.00;3.13;;;;;;;;;;4999708;28;20112;-88
2022/05/11 00:14:34;;;;;;;7.38;3.67;;;;;;;;;;4995385;28;20064;-89
2022/05/11 00:16:59;;;;;;;4.85;3.65;;;;;;;;;;5002090;28;20049;-87
2022/05/11 00:19:27;;;;;;;6.65;3.95;;;;;;;;;;5001330;28;20441;-89
2022/05/11 00:21:52;;;;;;;5.95;3.65;;;;;;;;;;5002997;28;20105;-88
2022/05/11 00:24:18;;;;;;;5.70;3.38;;;;;;;;;;5004608;28;20086;-87
2022/05/11 00:26:43;;;;;;;6.15;3.53;;;;;;;;;;5000222;28;20026;-91
2022/05/11 00:29:09;;;;;;;6.93;3.55;;;;;;;;;;5001131;28;20021;-90
2022/05/11 00:31:35;;;;;;;4.32;3.45;;;;;;;;;;5004127;28;20034;-90
2022/05/11 00:34:00;;;;;;;6.18;3.38;;;;;;;;;;5001609;28;20786;-89
2022/05/11 00:36:26;;;;;;;5.63;3.42;;;;;;;;;;5007112;28;20029;-91
2022/05/11 00:38:51;;;;;;;5.32;3.47;;;;;;;;;;5000043;28;20412;-89
2022/05/11 00:41:16;;;;;;;5.78;3.65;;;;;;;;;;4991742;28;20032;-91
2022/05/11 00:43:53;;;;;;;4.70;3.58;;;;;;;;;;5003435;28;20082;-89
2022/05/11 00:46:45;;;;;;;5.40;3.15;;;;;;;;;;5008132;28;20026;-91
2022/05/11 00:49:35;;;;;;;4.32;2.97;;;;;;;;;;4995366;28;20026;-91
2022/05/11 00:52:22;;;;;;;7.10;2.72;;;;;;;;;;5000631;28;20030;-87
2022/05/11 00:54:55;;;;;;;3.78;2.80;;;;;;;;;;5002053;28;20121;-89
2022/05/11 00:57:45;;;;;;;4.45;3.00;;;;;;;;;;5003473;28;20053;-90
2022/05/11 01:00:11;;;;;;;4.38;3.38;;;;;;;;;;5001284;28;20038;-88
2022/05/11 01:02:40;;;;;;;4.13;3.22;;;;;;;;;;5007010;28;20771;-89
2022/05/11 01:05:07;;;;;;;4.35;3.13;;;;;;;;;;5002487;28;20022;-89
2022/05/11 01:07:34;;;;;;;3.88;2.92;;;;;;;;;;5004649;28;20030;-87
2022/05/11 01:09:59;;;;;;;4.70;3.17;;;;;;;;;;4999264;28;20777;-84
2022/05/11 01:12:46;;;;;;;3.60;2.80;;;;;;;;;;5018302;28;20037;-87
2022/05/11 01:15:14;;;;;;;4.72;3.60;;;;;;;;;;5004919;28;20029;-87
2022/05/11 01:17:40;;;;;;;4.00;3.13;;;;;;;;;;5003339;28;20478;-90
2022/05/11 01:20:08;;;;;;;3.58;2.97;;;;;;;;;;5007038;28;20117;-84
2022/05/11 01:22:40;;;;;;;5.57;3.33;;;;;;;;;;5007982;28;20112;-88
2022/05/11 01:25:08;;;;;;;5.25;3.75;;;;;;;;;;5000119;28;20475;-87
2022/05/11 01:27:42;;;;;;;4.68;3.90;;;;;;;;;;5006824;28;20034;-87
2022/05/11 01:30:18;;;;;;;6.32;3.88;;;;;;;;;;5008879;28;20022;-86
2022/05/11 01:32:50;;;;;;;4.75;3.33;;;;;;;;;;5003025;28;20054;-89
2022/05/11 01:35:18;;;;;;;4.32;3.60;;;;;;;;;;5004703;28;20028;-89
2022/05/11 01:37:58;;;;;;;4.63;3.58;;;;;;;;;;5012482;28;20095;-87
2022/05/11 01:40:23;;;;;;;4.88;3.40;;;;;;;;;;5009183;28;20434;-87
2022/05/11 01:42:49;;;;;;;4.70;3.35;;;;;;;;;;5007261;28;20036;-90
2022/05/11 01:45:15;;;;;;;5.00;3.33;;;;;;;;;;5009339;28;20450;-87
2022/05/11 01:47:40;;;;;;;4.75;3.70;;;;;;;;;;5027832;28;20026;-86
2022/05/11 01:50:06;;;;;;;4.38;3.80;;;;;;;;;;5012369;28;20052;-86
2022/05/11 01:52:32;;;;;;;6.07;3.75;;;;;;;;;;5028039;28;20029;-87
2022/05/11 01:54:57;;;;;;;5.07;4.28;;;;;;;;;;5011652;28;20021;-87
2022/05/11 01:57:24;;;;;;;5.57;4.40;;;;;;;;;;5020652;28;20026;-85
2022/05/11 01:59:49;;;;;;;7.13;4.00;;;;;;;;;;5023657;28;20040;-85
2022/05/11 02:02:15;;;;;;;4.75;3.92;;;;;;;;;;5028812;28;20030;-87
2022/05/11 02:10:08;;;;;;;4.85;3.53;;;;;;;;;;5022173;28;20036;-84
2022/05/11 02:12:36;;;;;;;4.72;3.33;;;;;;;;;;5025610;28;20034;-86
2022/05/11 02:15:02;;;;;;;3.67;2.83;;;;;;;;;;5019853;28;20093;-85
2022/05/11 02:17:27;;;;;;;7.18;3.53;;;;;;;;;;5004987;28;20036;-86
2022/05/11 02:19:53;;;;;;;3.75;3.05;;;;;;;;;;5027199;28;20108;-89
2022/05/11 02:22:19;;;;;;;4.97;3.55;;;;;;;;;;5004710;28;20061;-88
2022/05/11 02:24:45;;;;;;;4.82;3.03;;;;;;;;;;5021801;28;20135;-88
2022/05/11 02:27:10;;;;;;;4.43;3.25;;;;;;;;;;5007397;28;20018;-89
2022/05/11 02:29:36;;;;;;;6.25;3.60;;;;;;;;;;5025022;28;20481;-89
2022/05/11 02:32:02;;;;;;;5.07;3.40;;;;;;;;;;5004721;28;20053;-88
2022/05/11 02:37:12;;;;;;;5.38;3.78;;;;;;;;;;5020096;28;20075;-88
2022/05/11 02:39:37;;;;;;;4.32;3.50;;;;;;;;;;5023818;28;20022;-89
2022/05/11 02:42:03;;;;;;;5.78;3.42;;;;;;;;;;5001764;28;20025;-89
2022/05/11 02:44:35;;;;;;;3.65;3.22;;;;;;;;;;5005509;28;20049;-86
2022/05/11 02:47:01;;;;;;;3.58;3.20;;;;;;;;;;4998496;28;20156;-87
2022/05/11 02:49:26;;;;;;;5.00;3.45;;;;;;;;;;5022596;28;20108;-87
2022/05/11 02:51:52;;;;;;;3.63;3.15;;;;;;;;;;5002584;28;20534;-86
2022/05/11 02:54:18;;;;;;;5.57;3.25;;;;;;;;;;5017595;28;20025;-87
2022/05/11 02:56:43;;;;;;;5.90;3.38;;;;;;;;;;5026805;28;20033;-87
2022/05/11 02:59:09;;;;;;;4.03;3.30;;;;;;;;;;5003190;28;20083;-87
2022/05/11 03:01:34;;;;;;;5.30;3.75;;;;;;;;;;5005933;28;20030;-89
2022/05/11 03:04:00;;;;;;;4.93;3.63;;;;;;;;;;5001845;28;20034;-87
2022/05/11 03:06:25;;;;;;;5.65;3.33;;;;;;;;;;5003797;28;20037;-87
2022/05/11 03:08:51;;;;;;;5.05;3.58;;;;;;;;;;5002444;28;20017;-87
2022/05/11 03:11:17;;;;;;;5.78;3.80;;;;;;;;;;5027607;28;20053;-87
2022/05/11 03:13:43;;;;;;;3.90;3.33;;;;;;;;;;5024486;28;20025;-89
2022/05/11 03:16:08;;;;;;;4.97;3.40;;;;;;;;;;4999649;28;20036;-88
2022/05/11 03:18:34;;;;;;;4.30;3.50;;;;;;;;;;5007829;28;20025;-87
2022/05/11 03:21:01;;;;;;;6.82;3.88;;;;;;;;;;5016854;28;20031;-89
2022/05/11 03:23:27;;;;;;;8.70;3.90;;;;;;;;;;5021072;28;20022;-87
2022/05/11 03:25:54;;;;;;;6.03;4.35;;;;;;;;;;5019625;28;20029;-87
2022/05/11 03:28:19;;;;;;;5.47;3.92;;;;;;;;;;4999754;28;20021;-85
2022/05/11 03:30:45;;;;;;;5.38;4.03;;;;;;;;;;5024635;28;20029;-87
2022/05/11 03:35:55;;;;;;;4.72;3.58;;;;;;;;;;5015673;28;20041;-87
2022/05/11 03:38:20;;;;;;;5.43;3.22;;;;;;;;;;5010649;28;20462;-88
2022/05/11 03:40:46;;;;;;;4.15;3.30;;;;;;;;;;5004440;28;20496;-86
2022/05/11 03:43:11;;;;;;;4.80;3.40;;;;;;;;;;5012442;28;20049;-86
2022/05/11 03:45:37;;;;;;;5.60;3.78;;;;;;;;;;5020020;28;20034;-87
2022/05/11 03:48:03;;;;;;;4.28;3.15;;;;;;;;;;5021211;28;20030;-86
2022/05/11 03:50:29;;;;;;;4.55;3.30;;;;;;;;;;5015865;28;20462;-85
2022/05/11 03:52:56;;;;;;;5.88;3.28;;;;;;;;;;5017687;28;20164;-87
2022/05/11 03:55:23;;;;;;;4.25;3.50;;;;;;;;;;5023421;28;20474;-84
2022/05/11 03:57:49;;;;;;;4.47;3.72;;;;;;;;;;5020423;28;20029;-87
2022/05/11 04:00:21;;;;;;;4.18;3.42;;;;;;;;;;5002532;28;20119;-86
2022/05/11 04:02:48;;;;;;;6.18;3.90;;;;;;;;;;5006362;28;20033;-85
2022/05/11 04:05:14;;;;;;;9.27;4.28;;;;;;;;;;5007160;28;20400;-87
2022/05/11 04:07:41;;;;;;;6.25;3.70;;;;;;;;;;5009822;28;20018;-85
2022/05/11 04:10:10;;;;;;;7.07;3.65;;;;;;;;;;5018523;28;20046;-86
2022/05/11 04:12:36;;;;;;;6.50;3.53;;;;;;;;;;5024056;28;20470;-88
2022/05/11 04:15:03;;;;;;;5.55;4.32;;;;;;;;;;5025832;28;20030;-85
2022/05/11 04:17:28;;;;;;;5.65;4.22;;;;;;;;;;5019472;28;20363;-84
2022/05/11 04:19:55;;;;;;;4.90;3.72;;;;;;;;;;5023336;28;20037;-85
2022/05/11 04:22:20;;;;;;;5.03;4.07;;;;;;;;;;5003550;28;20040;-87
2022/05/11 04:24:46;;;;;;;5.70;4.20;;;;;;;;;;5024596;28;20381;-82
2022/05/11 04:27:13;;;;;;;5.75;4.45;;;;;;;;;;5024144;28;20072;-84
2022/05/11 04:29:39;;;;;;;8.63;5.20;;;;;;;;;;5025220;28;20036;-87
2022/05/11 04:32:06;;;;;;;7.53;5.25;;;;;;;;;;5009442;28;20152;-86
2022/05/11 04:34:31;;;;;;;6.97;5.82;;;;;;;;;;5026129;28;20461;-83
2022/05/11 04:36:57;;;;;;;7.95;5.90;;;;;;;;;;5007777;28;20075;-83
2022/05/11 04:39:22;;;;;;;10.50;6.65;;;;;;;;;;5024422;28;20029;-86
2022/05/11 04:41:47;;;;;;;12.80;7.28;;;;;;;;;;5022668;28;20026;-84
2022/05/11 04:44:13;;;;;;;8.93;7.07;;;;;;;;;;5007630;28;20045;-82
2022/05/11 04:46:38;;;;;;;11.25;7.72;;;;;;;;;;5022680;28;20030;-84
2022/05/11 04:49:17;;;;;;;12.63;8.73;;;;;;;;;;5019729;28;20013;-85
2022/05/11 04:51:51;;;;;;;9.55;7.85;;;;;;;;;;5024180;28;20531;-84
2022/05/11 04:54:17;;;;;;;16.05;9.27;;;;;;;;;;5029009;28;20033;-84
2022/05/11 04:56:43;;;;;;;15.23;9.20;;;;;;;;;;5029532;28;20031;-84
2022/05/11 04:59:12;;;;;;;14.48;8.82;;;;;;;;;;5022236;28;20030;-84
2022/05/11 05:01:38;;;;;;;11.05;8.88;;;;;;;;;;5021653;28;20496;-85
2022/05/11 05:04:06;;;;;;;16.85;9.18;;;;;;;;;;5023050;28;20037;-83
2022/05/11 05:06:33;;;;;;;13.25;8.85;;;;;;;;;;5026995;28;21451;-84
2022/05/11 05:09:00;;;;;;;15.80;9.25;;;;;;;;;;5023289;28;20021;-84
2022/05/11 05:11:26;;;;;;;12.93;8.95;;;;;;;;;;5027969;28;20409;-83
2022/05/11 05:13:51;;;;;;;13.68;8.30;;;;;;;;;;5027180;28;20030;-84
2022/05/11 05:16:17;;;;;;;11.85;8.35;;;;;;;;;;5025175;28;20420;-89
2022/05/11 05:18:42;;;;;;;10.00;7.15;;;;;;;;;;5026334;28;20021;-88
2022/05/11 05:21:08;;;;;;;10.32;7.53;;;;;;;;;;5026843;28;20477;-86
2022/05/11 05:23:35;;;;;;;11.48;7.40;;;;;;;;;;5010540;28;20116;-87
2022/05/11 05:26:01;;;;;;;9.93;7.47;;;;;;;;;;5010464;28;20100;-92
2022/05/11 05:31:18;;;;;;;8.95;6.75;;;;;;;;;;5030656;28;20032;-91
2022/05/11 05:33:43;;;;;;;8.52;7.13;;;;;;;;;;5002592;28;20037;-92
2022/05/11 05:36:10;;;;;;;14.45;7.35;;;;;;;;;;5022379;28;20034;-91
2022/05/11 05:38:38;;;;;;;10.55;6.70;;;;;;;;;;5008348;28;20064;-91
2022/05/11 05:41:24;;;;;;;10.55;6.95;;;;;;;;;;5007646;28;20032;-93
2022/05/11 05:43:49;;;;;;;11.23;6.93;;;;;;;;;;5011748;28;20038;-89
2022/05/11 05:46:18;;;;;;;9.70;6.38;;;;;;;;;;5030963;28;20024;-91
2022/05/11 05:48:44;;;;;;;9.23;6.53;;;;;;;;;;5031651;28;20485;-92
2022/05/11 05:51:12;;;;;;;9.75;7.05;;;;;;;;;;5018860;28;20117;-91
2022/05/11 05:53:40;;;;;;;8.27;6.13;;;;;;;;;;5031224;28;20071;-90
2022/05/11 05:56:06;;;;;;;12.43;7.03;;;;;;;;;;5010433;28;20083;-90
2022/05/11 05:58:32;;;;;;;9.60;6.85;;;;;;;;;;5010777;28;20414;-91
2022/05/11 06:00:58;;;;;;;10.50;5.93;;;;;;;;;;5004910;28;20079;-90
2022/05/11 06:03:27;;;;;;;7.30;5.95;;;;;;;;;;5010233;28;20112;-90
2022/05/11 06:05:53;;;;;;;7.45;6.03;;;;;;;;;;5003752;28;20022;-89
2022/05/11 06:08:20;;;;;;;7.88;6.07;;;;;;;;;;5005285;28;20018;-90
2022/05/11 06:10:46;;;;;;;11.45;6.35;;;;;;;;;;5008403;28;20083;-91
2022/05/11 06:13:14;;;;;;;10.27;7.25;;;;;;;;;;5009358;28;20040;-93
2022/05/11 06:15:41;;;;;;;8.50;7.05;;;;;;;;;;5000312;28;20079;-89
2022/05/11 06:18:08;;;;;;;11.15;7.13;;;;;;;;;;5008449;28;20033;-90
2022/05/11 06:20:34;;;;;;;8.32;7.20;;;;;;;;;;4998932;28;20362;-91
2022/05/11 06:23:01;;;;;;;11.55;7.57;;;;;;;;;;5008068;28;20443;-91
2022/05/11 06:25:27;;;;;;;10.55;8.35;;;;;;;;;;5030944;28;20021;-88
2022/05/11 06:27:53;;;;;;;11.35;8.30;;;;;;;;;;5026800;28;20040;-91
2022/05/11 06:30:18;;;;;;;12.75;8.63;;;;;;;;;;5010196;28;21126;-83
2022/05/11 06:32:43;;;;;;;9.60;8.13;;;;;;;;;;5008291;28;20053;-84
2022/05/11 06:35:09;;;;;;;13.70;8.55;;;;;;;;;;5009527;28;20030;-86
2022/05/11 06:37:40;;;;;;;10.57;8.27;;;;;;;;;;5027831;28;20100;-84
2022/05/11 06:40:07;;;;;;;13.88;8.93;;;;;;;;;;5028928;28;20064;-82
2022/05/11 06:42:32;;;;;;;10.77;9.13;;;;;;;;;;5026281;28;20017;-84
2022/05/11 06:44:59;;;;;;;12.90;8.88;;;;;;;;;;5025447;28;20489;-83
2022/05/11 06:47:24;;;;;;;11.70;8.23;;;;;;;;;;5026780;28;20547;-84
2022/05/11 06:49:50;;;;;;;12.90;9.00;;;;;;;;;;5007834;28;20038;-83
2022/05/11 06:52:17;;;;;;;10.63;8.05;;;;;;;;;;5031526;28;20029;-83
2022/05/11 07:00:11;;;;;;;14.05;7.80;;;;;;;;;;5022593;28;20398;-87
2022/05/11 07:02:37;;;;;;;12.07;7.57;;;;;;;;;;5027760;28;20030;-87
2022/05/11 07:05:05;;;;;;;11.68;7.88;;;;;;;;;;5008647;28;20371;-88
2022/05/11 07:07:30;;;;;;;11.90;8.63;;;;;;;;;;5010167;28;20041;-88
2022/05/11 07:09:55;;;;;;;11.38;6.50;;;;;;;;;;5024944;28;20022;-89
2022/05/11 07:12:21;;;;;;;8.02;5.95;;;;;;;;;;5004001;28;20030;-86
2022/05/11 07:14:55;;;;;;;6.80;5.63;;;;;;;;;;5029187;28;20334;-86
2022/05/11 07:17:26;;;;;;;9.65;5.85;;;;;;;;;;5013252;28;20136;-89
2022/05/11 07:19:53;;;;;;;8.07;5.95;;;;;;;;;;5008465;28;20128;-88
2022/05/11 07:22:18;;;;;;;8.73;5.07;;;;;;;;;;4999943;28;20478;-87
2022/05/11 07:24:44;;;;;;;10.10;5.22;;;;;;;;;;5024736;28;20105;-89
2022/05/11 07:27:10;;;;;;;12.40;5.95;;;;;;;;;;5007837;28;20469;-84
2022/05/11 07:29:36;;;;;;;13.85;6.03;;;;;;;;;;5025023;28;20097;-88
2022/05/11 07:32:02;;;;;;;9.27;5.55;;;;;;;;;;5009781;28;20108;-85
2022/05/11 07:34:28;;;;;;;7.78;4.53;;;;;;;;;;5008641;28;20129;-90
2022/05/11 07:36:57;;;;;;;6.07;4.45;;;;;;;;;;5012243;28;20113;-87
2022/05/11 07:39:24;;;;;;;7.38;4.38;;;;;;;;;;5005690;28;20575;-85
2022/05/11 07:41:50;;;;;;;9.88;4.80;;;;;;;;;;5007975;28;20112;-86
2022/05/11 07:44:16;;;;;;;6.72;3.95;;;;;;;;;;5011488;28;20875;-88
2022/05/11 07:46:43;;;;;;;6.43;3.78;;;;;;;;;;5021703;28;20097;-88
2022/05/11 07:49:09;;;;;;;4.10;3.30;;;;;;;;;;5006387;28;20025;-81
2022/05/11 07:51:36;;;;;;;6.80;3.90;;;;;;;;;;5004206;28;20037;-83
2022/05/11 07:54:03;;;;;;;4.15;3.38;;;;;;;;;;5008801;28;20112;-88
2022/05/11 08:01:58;;;;;;;6.65;4.18;;;;;;;;;;5021558;28;20096;-88
2022/05/11 08:04:24;;;;;;;6.75;3.78;;;;;;;;;;5027180;28;20029;-84
2022/05/11 08:06:50;;;;;;;5.97;3.75;;;;;;;;;;5002959;28;20079;-86
2022/05/11 08:09:15;;;;;;;5.30;3.10;;;;;;;;;;5020146;28;20100;-84
2022/05/11 08:11:41;;;;;;;9.23;4.10;;;;;;;;;;5025605;28;20032;-84
2022/05/11 08:14:07;;;;;;;6.97;4.25;;;;;;;;;;5020021;28;20018;-84
2022/05/11 08:16:33;;;;;;;7.50;3.55;;;;;;;;;;5002300;28;20069;-84
2022/05/11 08:18:58;;;;;;;5.45;2.83;;;;;;;;;;5023202;28;20024;-85
2022/05/11 08:21:25;;;;;;;5.65;3.78;;;;;;;;;;5026681;28;20033;-84
2022/05/11 08:23:50;;;;;;;4.32;3.00;;;;;;;;;;5007808;28;20116;-86
2022/05/11 08:26:16;;;;;;;4.07;3.15;;;;;;;;;;5005411;28;20113;-87
2022/05/11 08:28:42;;;;;;;3.20;2.25;;;;;;;;;;5028650;28;21560;-85
2022/05/11 08:33:51;;;;;;;4.35;2.97;;;;;;;;;;5023417;28;20049;-84
2022/05/11 08:36:19;;;;;;;4.70;2.95;;;;;;;;;;5031761;28;20021;-85
2022/05/11 08:38:48;;;;;;;6.45;3.05;;;;;;;;;;5028174;28;20047;-85
2022/05/11 08:41:49;;;;;;;4.03;3.20;;;;;;;;;;5013104;28;20087;-81
2022/05/11 08:44:22;;;;;;;4.15;2.75;;;;;;;;;;5026852;28;20046;-86
2022/05/11 08:47:11;;;;;;;5.40;3.05;;;;;;;;;;5025355;28;20126;-86
2022/05/11 08:49:55;;;;;;;3.40;2.50;;;;;;;;;;5022196;28;20025;-86
2022/05/11 08:52:46;;;;;;;5.28;2.70;;;;;;;;;;5026241;28;20080;-83
2022/05/11 08:55:50;;;;;;;3.80;2.78;;;;;;;;;;5027693;28;20017;-83
2022/05/11 08:58:24;;;;;;;3.95;2.75;;;;;;;;;;5018843;28;20044;-84
2022/05/11 09:00:53;;;;;;;4.93;3.20;;;;;;;;;;5021585;28;20037;-83
2022/05/11 09:03:31;;;;;;;7.80;3.15;;;;;;;;;;5028799;28;20116;-86
2022/05/11 09:06:16;;;;;;;4.30;2.85;;;;;;;;;;5016059;28;20033;-83
2022/05/11 09:08:42;;;;;;;3.63;2.53;;;;;;;;;;5024171;28;20029;-87
2022/05/11 09:11:13;;;;;;;3.75;3.00;;;;;;;;;;5026285;28;20034;-87
2022/05/11 09:13:42;;;;;;;6.88;2.83;;;;;;;;;;5031265;28;20041;-86
2022/05/11 09:16:19;;;;;;;4.45;2.60;;;;;;;;;;5011794;28;20504;-87
2022/05/11 09:18:45;;;;;;;4.28;2.50;;;;;;;;;;5007667;28;20036;-85
2022/05/11 09:21:32;;;;;;;3.55;2.28;;;;;;;;;;5008135;28;20112;-85
2022/05/11 09:24:21;;;;;;;4.50;2.97;;;;;;;;;;5025814;28;20029;-88
2022/05/11 09:27:01;;;;;;;3.80;2.70;;;;;;;;;;5024398;28;20908;-87
2022/05/11 09:29:32;;;;;;;;;;;;;;;;;;5011747;28;20028;-90
2022/05/11 09:32:21;;;;;;;3.90;2.28;;;;;;;;;;5013925;28;19913;-89
2022/05/11 09:34:46;;;;;;;3.20;2.20;;;;;;;;;;5028761;28;20079;-90
2022/05/11 09:37:34;;;;;;;4.22;2.42;;;;;;;;;;5007422;28;20108;-85
2022/05/11 09:40:11;;;;;;;5.60;2.40;;;;;;;;;;5009191;28;20556;-85
2022/05/11 09:42:51;;;;;;;3.40;2.50;;;;;;;;;;5027720;28;20029;-88
2022/05/11 09:45:43;;;;;;;5.35;3.15;;;;;;;;;;5024971;28;20041;-87
2022/05/11 09:48:22;;;;;;;5.32;2.67;;;;;;;;;;5024671;28;20034;-88
2022/05/11 09:50:53;;;;;;;4.47;2.30;;;;;;;;;;5024557;28;20253;-87
2022/05/11 09:53:24;;;;;;;4.00;2.70;;;;;;;;;;5026363;28;20025;-85
2022/05/11 09:55:50;;;;;;;4.30;2.60;;;;;;;;;;5010894;28;20033;-85
2022/05/11 09:58:29;;;;;;;2.90;2.33;;;;;;;;;;5005889;28;20025;-88
2022/05/11 10:01:09;;;;;;;7.22;2.72;;;;;;;;;;5029989;28;20108;-87
2022/05/11 10:03:38;;;;;;;5.25;2.90;;;;;;;;;;5007508;28;20033;-88
2022/05/11 10:06:06;;;;;;;5.63;2.72;;;;;;;;;;5022250;28;20037;-89
2022/05/11 10:08:34;;;;;;;4.07;2.80;;;;;;;;;;5003952;28;20025;-88
2022/05/11 10:11:08;;;;;;;4.25;2.55;;;;;;;;;;5027102;28;20100;-87
2022/05/11 10:13:43;;;;;;;3.33;2.47;;;;;;;;;;5006464;28;20029;-89
2022/05/11 10:22:24;;;;;;;2.65;2.17;;;;;;;;;;5031103;28;20052;-88
2022/05/11 10:24:59;;;;;;;3.38;2.13;;;;;;;;;;5003303;28;20022;-86
2022/05/11 10:27:32;;;;;;;2.50;2.03;;;;;;;;;;5009183;28;20112;-88
2022/05/11 10:30:09;;;;;;;3.70;2.55;;;;;;;;;;5002931;28;20486;-87
2022/05/11 10:32:56;;;;;;;3.50;2.42;;;;;;;;;;5011712;28;20120;-87
2022/05/11 10:35:50;;;;;;;4.95;2.53;;;;;;;;;;5023004;28;20028;-83
2022/05/11 10:38:23;;;;;;;3.30;2.22;;;;;;;;;;5009912;28;20021;-88
2022/05/11 10:41:01;;;;;;;3.35;2.42;;;;;;;;;;5021346;28;20511;-89
2022/05/11 10:44:01;;;;;;;3.78;2.00;;;;;;;;;;5023896;28;20132;-88
2022/05/11 10:46:44;;;;;;;3.95;2.40;;;;;;;;;;5001484;28;20025;-88
2022/05/11 10:49:38;;;;;;;2.95;1.90;;;;;;;;;;5006502;28;20080;-86
2022/05/11 10:52:28;;;;;;;3.33;1.77;;;;;;;;;;5008692;28;20477;-88
2022/05/11 10:55:15;;;;;;;2.70;1.80;;;;;;;;;;5003954;28;20034;-87
2022/05/11 10:57:46;;;;;;;5.97;2.28;;;;;;;;;;5002466;28;20037;-88
2022/05/11 11:00:15;;;;;;;3.15;2.40;;;;;;;;;;5021456;28;20030;-87
2022/05/11 11:03:08;;;;;;;3.65;2.30;;;;;;;;;;5005476;28;20033;-89
2022/05/11 11:05:40;;;;;;;3.67;2.13;;;;;;;;;;5009965;28;20029;-87
2022/05/11 11:08:37;;;;;;;2.03;1.80;;;;;;;;;;5008420;28;20022;-86
2022/05/11 11:11:31;;;;;;;6.00;2.63;;;;;;;;;;5024323;28;20033;-88
2022/05/11 11:14:00;;;;;;;5.03;2.47;;;;;;;;;;5004987;28;20052;-88
2022/05/11 11:16:38;;;;;;;3.42;2.05;;;;;;;;;;5006683;28;20109;-88
2022/05/11 11:19:05;;;;;;;9.52;2.92;;;;;;;;;;5005074;28;20030;-88
2022/05/11 11:21:31;;;;;;;3.75;2.05;;;;;;;;;;5006875;28;20100;-88
2022/05/11 11:24:25;;;;;;;3.60;3.05;;;;;;;;;;5028614;28;20038;-88
2022/05/11 11:26:50;;;;;;;5.82;2.90;;;;;;;;;;5003791;28;20037;-88
2022/05/11 11:29:19;;;;;;;9.48;3.20;;;;;;;;;;5023352;28;20029;-87
2022/05/11 11:31:58;;;;;;;6.07;2.40;;;;;;;;;;5022545;28;20087;-86
2022/05/11 11:34:29;;;;;;;4.05;2.42;;;;;;;;;;5008720;28;20029;-87
2022/05/11 11:36:55;;;;;;;4.28;2.75;;;;;;;;;;5005047;28;20061;-87
2022/05/11 11:39:47;;;;;;;6.68;2.60;;;;;;;;;;5007922;28;20458;-87
2022/05/11 11:42:46;;;;;;;3.60;2.95;;;;;;;;;;5022206;28;20018;-88
2022/05/11 11:45:28;;;;;;;3.67;1.80;;;;;;;;;;5025027;28;20049;-87
2022/05/11 11:48:00;;;;;;;2.70;1.70;;;;;;;;;;5002234;28;20103;-87
2022/05/11 11:50:49;;;;;;;2.75;2.08;;;;;;;;;;5021929;28;20032;-87
2022/05/11 11:53:46;;;;;;;5.50;1.67;;;;;;;;;;5022861;28;20045;-86
2022/05/11 11:56:25;;;;;;;3.13;1.80;;;;;;;;;;5009307;28;20111;-88
2022/05/11 11:59:12;;;;;;;3.03;1.55;;;;;;;;;;5001599;28;20453;-88
2022/05/11 12:01:49;;;;;;;3.40;1.88;;;;;;;;;;5019131;28;20037;-87
2022/05/11 12:04:28;;;;;;;2.42;1.67;;;;;;;;;;5003298;28;20079;-89
2022/05/11 12:15:33;;;;;;;2.78;1.52;;;;;;;;;;5019271;28;20421;-88
2022/05/11 12:18:00;;;;;;;2.95;1.75;;;;;;;;;;5022908;28;20034;-89
2022/05/11 12:20:26;;;;;;;1.92;1.55;;;;;;;;;;5027606;28;20030;-88
2022/05/11 12:22:56;;;;;;;3.25;1.58;;;;;;;;;;4998883;28;20022;-89
2022/05/11 12:25:32;;;;;;;3.83;1.50;;;;;;;;;;5000412;28;20053;-88
2022/05/11 12:28:17;;;;;;;2.95;1.65;;;;;;;;;;4999242;28;20049;-89
2022/05/11 12:30:43;;;;;;;3.03;2.10;;;;;;;;;;5003800;28;20052;-90
2022/05/11 12:33:20;;;;;;;5.43;2.08;;;;;;;;;;5006827;28;20065;-88
2022/05/11 12:35:49;;;;;;;4.60;2.15;;;;;;;;;;5005869;28;20026;-87
2022/05/11 12:38:30;;;;;;;5.13;2.53;;;;;;;;;;5022223;28;20382;-86
2022/05/11 12:40:59;;;;;;;3.95;2.65;;;;;;;;;;5002735;28;20029;-83
2022/05/11 12:43:33;;;;;;;6.23;2.53;;;;;;;;;;5004353;28;20049;-85
2022/05/11 12:46:06;;;;;;;3.05;2.25;;;;;;;;;;5026014;28;20132;-84
2022/05/11 12:48:39;;;;;;;3.25;2.10;;;;;;;;;;5023127;28;20033;-84
2022/05/11 12:51:08;;;;;;;3.15;2.08;;;;;;;;;;5028530;28;20358;-82
2022/05/11 12:53:39;;;;;;;5.35;2.40;;;;;;;;;;5009788;28;20365;-85
2022/05/11 12:56:24;;;;;;;4.28;2.78;;;;;;;;;;5024364;28;20100;-88
2022/05/11 12:58:54;;;;;;;3.60;2.03;;;;;;;;;;5023035;28;20113;-87
2022/05/11 13:01:22;;;;;;;2.63;1.88;;;;;;;;;;5005457;28;20037;-86
2022/05/11 13:03:50;;;;;;;3.42;1.90;;;;;;;;;;5021178;28;20375;-87
2022/05/11 13:06:27;;;;;;;4.40;2.30;;;;;;;;;;5009198;28;20083;-90
2022/05/11 13:08:56;;;;;;;3.42;2.03;;;;;;;;;;5005367;28;20029;-90
2022/05/11 13:11:25;;;;;;;2.95;2.10;;;;;;;;;;5007799;28;20105;-86
2022/05/11 13:13:54;;;;;;;3.00;2.38;;;;;;;;;;5027973;28;20040;-87
2022/05/11 13:16:27;;;;;;;3.10;2.47;;;;;;;;;;5009367;28;20037;-88
2022/05/11 13:19:21;;;;;;;2.92;2.33;;;;;;;;;;5011018;28;20045;-88
2022/05/11 13:21:47;;;;;;;2.88;2.28;;;;;;;;;;5021845;28;20032;-88
2022/05/11 13:24:13;;;;;;;2.28;1.92;;;;;;;;;;5007126;28;20153;-88
2022/05/11 13:26:45;;;;;;;3.72;1.90;;;;;;;;;;5024264;28;20060;-87
2022/05/11 13:29:22;;;;;;;2.55;1.90;;;;;;;;;;5024976;28;20351;-90
2022/05/11 13:32:11;;;;;;;2.40;1.83;;;;;;;;;;5024464;28;20109;-87
2022/05/11 13:34:42;;;;;;;4.45;1.80;;;;;;;;;;5011633;28;20037;-91
2022/05/11 13:37:25;;;;;;;2.47;1.92;;;;;;;;;;5007222;28;20045;-93
2022/05/11 13:39:52;;;;;;;2.80;1.67;;;;;;;;;;5012067;28;20037;-88
2022/05/11 13:42:21;;;;;;;3.15;1.88;;;;;;;;;;5007934;28;20036;-89
2022/05/11 13:44:56;;;;;;;;;;;;;;;;;;5004020;28;20064;-89
2022/05/11 13:50:39;;;;;;;3.45;1.70;;;;;;;;;;5028339;28;20096;-91
2022/05/11 13:53:11;;;;;;;4.18;1.90;;;;;;;;;;5012177;28;20037;-93
2022/05/11 13:55:43;;;;;;;4.10;1.70;;;;;;;;;;5013512;28;20125;-91
2022/05/11 13:58:24;;;;;;;2.83;1.70;;;;;;;;;;5005177;28;20033;-90
2022/05/11 14:00:54;;;;;;;1.58;1.25;;;;;;;;;;5003375;28;20030;-94
2022/05/11 14:03:20;;;;;;;1.60;1.40;;;;;;;;;;5011995;28;20065;-91
2022/05/11 14:05:45;;;;;;;3.67;1.60;;;;;;;;;;5024165;28;20076;-89
2022/05/11 14:08:14;;;;;;;2.85;1.20;;;;;;;;;;5010765;28;20044;-93
2022/05/11 14:10:40;;;;;;;2.15;1.40;;;;;;;;;;5005064;28;20044;-92
2022/05/11 14:13:05;;;;;;;2.67;1.38;;;;;;;;;;5005013;28;20026;-93
2022/05/11 14:15:31;;;;;;;1.95;1.30;;;;;;;;;;5010060;28;20120;-92
2022/05/11 14:17:57;;;;;;;2.10;1.20;;;;;;;;;;5008442;28;20030;-92
2022/05/11 14:20:25;;;;;;;4.00;1.38;;;;;;;;;;5008097;28;20025;-92
2022/05/11 14:22:52;;;;;;;1.80;1.33;;;;;;;;;;5024814;28;20388;-92
2022/05/11 14:25:19;;;;;;;2.67;1.60;;;;;;;;;;5027806;28;20466;-90
2022/05/11 14:27:45;;;;;;;2.50;1.40;;;;;;;;;;5023072;28;20148;-90
2022/05/11 14:30:12;;;;;;;5.50;1.60;;;;;;;;;;5012217;28;20037;-93
2022/05/11 14:32:45;;;;;;;4.00;1.35;;;;;;;;;;5008399;28;20104;-90
2022/05/11 14:35:14;;;;;;;2.25;1.48;;;;;;;;;;5020571;28;20021;-92
2022/05/11 14:37:41;;;;;;;2.30;1.25;;;;;;;;;;5005055;28;20108;-92
2022/05/11 14:40:08;;;;;;;2.85;1.30;;;;;;;;;;5022475;28;20471;-92
2022/05/11 14:42:34;;;;;;;4.13;1.52;;;;;;;;;;5007547;28;20033;-92
2022/05/11 14:45:00;;;;;;;5.82;1.88;;;;;;;;;;5030717;28;20054;-88
2022/05/11 14:47:27;;;;;;;2.85;1.48;;;;;;;;;;5010059;28;20053;-86
2022/05/11 14:49:53;;;;;;;3.33;1.70;;;;;;;;;;5008406;28;20026;-89
2022/05/11 14:52:19;;;;;;;3.22;1.85;;;;;;;;;;5009889;28;20032;-89
2022/05/11 14:54:44;;;;;;;2.53;1.70;;;;;;;;;;5011529;28;20041;-91
2022/05/11 15:02:40;;;;;;;3.33;1.95;;;;;;;;;;5023772;28;20032;-87
2022/05/11 15:05:08;;;;;;;2.33;1.75;;;;;;;;;;5019773;28;20029;-82
2022/05/11 15:07:34;;;;;;;3.67;1.67;;;;;;;;;;5023595;28;20043;-86
2022/05/11 15:10:00;;;;;;;2.38;1.67;;;;;;;;;;5005281;28;20032;-88
2022/05/11 15:15:12;;;;;;;2.45;1.70;;;;;;;;;;5027260;28;20032;-86
2022/05/11 15:17:37;;;;;;;3.72;1.88;;;;;;;;;;5007209;28;20034;-84
2022/05/11 15:20:06;;;;;;;2.65;1.75;;;;;;;;;;5006094;28;20029;-84
2022/05/11 15:22:33;;;;;;;3.95;1.60;;;;;;;;;;5003275;28;20029;-86
2022/05/11 15:24:59;;;;;;;3.13;1.70;;;;;;;;;;5006403;28;20160;-85
2022/05/11 15:27:24;;;;;;;2.60;1.80;;;;;;;;;;5023225;28;20053;-88
2022/05/11 15:29:50;;;;;;;1.88;1.45;;;;;;;;;;5021431;28;20462;-83
2022/05/11 15:32:24;;;;;;;2.35;1.50;;;;;;;;;;5024172;28;20083;-86
2022/05/11 15:34:51;;;;;;;4.57;1.55;;;;;;;;;;5024993;28;20037;-83
2022/05/11 15:37:17;;;;;;;1.88;1.50;;;;;;;;;;5026758;28;20025;-88
2022/05/11 15:39:43;;;;;;;2.28;1.67;;;;;;;;;;5007859;28;20072;-85
2022/05/11 15:42:12;;;;;;;1.95;1.67;;;;;;;;;;5023560;28;20507;-84
2022/05/11 15:44:39;;;;;;;2.73;1.33;;;;;;;;;;5004158;28;20046;-87
2022/05/11 15:47:07;;;;;;;3.15;1.67;;;;;;;;;;5021989;28;20040;-85
2022/05/11 15:49:34;;;;;;;1.80;1.40;;;;;;;;;;5007367;28;20186;-85
2022/05/11 15:52:04;;;;;;;2.38;1.30;;;;;;;;;;5011070;28;20128;-84
2022/05/11 15:54:29;;;;;;;;;;;;;;;;;;5011088;28;20029;-84
2022/05/11 15:56:55;;;;;;;5.55;1.70;;;;;;;;;;5022582;28;19920;-80